createdAt,value
2022-10-22T00:01:02.004Z,12.50
2022-10-22T00:05:05.743Z,12.50
2022-10-22T00:09:08.640Z,12.40
2022-10-22T00:13:13.360Z,12.40
2022-10-22T00:17:16.373Z,12.30
2022-10-22T00:21:19.169Z,12.30
2022-10-22T00:25:21.973Z,12.30
2022-10-22T00:29:26.202Z,12.30
2022-10-22T00:33:30.541Z,12.30
2022-10-22T00:37:33.392Z,12.30
2022-10-22T00:41:36.276Z,12.40
2022-10-22T00:45:41.000Z,12.40
2022-10-22T00:49:44.478Z,12.40
2022-10-22T00:53:50.697Z,12.40
2022-10-22T00:57:55.146Z,12.40
2022-10-22T01:01:59.371Z,12.40
2022-10-22T01:06:04.674Z,12.40
2022-10-22T01:10:15.956Z,12.40
2022-10-22T01:14:26.129Z,12.50
2022-10-22T01:18:38.047Z,12.70
2022-10-22T01:22:44.163Z,12.90
2022-10-22T01:27:00.259Z,13.10
2022-10-22T01:31:06.521Z,13.10
2022-10-22T01:35:12.628Z,13.10
2022-10-22T01:39:17.212Z,13.00
2022-10-22T01:43:20.366Z,12.80
2022-10-22T01:47:37.582Z,12.70
2022-10-22T01:51:52.436Z,12.60
2022-10-22T01:56:14.053Z,12.50
2022-10-22T02:00:19.896Z,12.50
2022-10-22T02:04:30.438Z,12.40
2022-10-22T02:08:36.370Z,12.40
2022-10-22T02:12:41.487Z,12.30
2022-10-22T02:16:47.395Z,12.20
2022-10-22T02:20:51.986Z,12.20
2022-10-22T02:24:55.117Z,12.10
2022-10-22T02:29:02.252Z,12.10
2022-10-22T02:33:13.089Z,12.10
2022-10-22T02:37:18.241Z,12.10
2022-10-22T02:41:21.391Z,12.00
2022-10-22T02:45:24.208Z,12.00
2022-10-22T02:49:27.292Z,12.00
2022-10-22T02:53:31.538Z,11.90
2022-10-22T02:57:34.817Z,11.90
2022-10-22T03:01:37.876Z,11.90
2022-10-22T03:05:41.124Z,11.80
2022-10-22T03:09:47.001Z,11.80
2022-10-22T03:13:49.823Z,11.70
2022-10-22T03:17:55.526Z,11.70
2022-10-22T03:22:02.000Z,11.60
2022-10-22T03:26:07.126Z,11.60
2022-10-22T03:30:12.019Z,11.60
2022-10-22T03:34:14.807Z,11.50
2022-10-22T03:38:17.733Z,11.50
2022-10-22T03:42:22.380Z,11.50
2022-10-22T03:46:25.262Z,11.40
2022-10-22T03:50:28.093Z,11.40
2022-10-22T03:54:30.961Z,11.40
2022-10-22T03:58:35.196Z,11.40
2022-10-22T04:02:38.016Z,11.40
2022-10-22T04:06:40.808Z,11.30
2022-10-22T04:10:43.617Z,11.30
2022-10-22T04:14:48.369Z,11.30
2022-10-22T04:18:51.549Z,11.30
2022-10-22T04:22:54.546Z,11.30
2022-10-22T04:26:57.426Z,11.30
2022-10-22T04:31:01.908Z,11.20
2022-10-22T04:35:05.551Z,11.20
2022-10-22T04:39:08.448Z,11.20
2022-10-22T04:43:11.527Z,11.20
2022-10-22T04:47:15.659Z,11.20
2022-10-22T04:51:20.503Z,11.20
2022-10-22T04:55:23.329Z,11.20
2022-10-22T04:59:26.281Z,11.20
2022-10-22T05:03:30.408Z,11.20
2022-10-22T05:07:33.225Z,11.20
2022-10-22T05:11:37.922Z,11.30
2022-10-22T05:15:40.716Z,11.20
2022-10-22T05:19:44.883Z,11.20
2022-10-22T05:23:49.098Z,11.30
2022-10-22T05:27:51.906Z,11.50
2022-10-22T05:31:55.017Z,11.90
2022-10-22T05:35:59.324Z,12.10
2022-10-22T05:40:12.746Z,12.30
2022-10-22T05:44:22.497Z,12.40
2022-10-22T05:48:25.310Z,12.50
2022-10-22T05:52:29.483Z,12.50
2022-10-22T05:56:33.126Z,12.50
2022-10-22T06:00:35.948Z,12.50
2022-10-22T06:04:38.733Z,12.40
2022-10-22T06:08:42.991Z,12.30
2022-10-22T06:12:45.849Z,12.20
2022-10-22T06:16:49.158Z,12.10
2022-10-22T06:20:51.973Z,12.00
2022-10-22T06:24:56.084Z,11.90
2022-10-22T06:28:59.495Z,11.90
2022-10-22T06:33:02.297Z,11.80
2022-10-22T06:37:05.113Z,11.80
2022-10-22T06:41:10.928Z,11.70
2022-10-22T06:45:13.942Z,11.70
2022-10-22T06:49:17.121Z,11.60
2022-10-22T06:57:25.060Z,11.60
2022-10-22T07:01:30.157Z,11.50
2022-10-22T07:05:35.059Z,11.50
2022-10-22T07:09:39.282Z,11.50
2022-10-22T07:13:43.906Z,11.50
2022-10-22T07:17:46.808Z,11.60
2022-10-22T07:21:49.679Z,11.70
2022-10-22T07:25:53.136Z,11.80
2022-10-22T07:30:00.893Z,11.90
2022-10-22T07:34:04.024Z,12.00
2022-10-22T07:38:07.571Z,12.30
2022-10-22T07:42:10.407Z,12.60
2022-10-22T07:46:14.752Z,12.80
2022-10-22T07:50:18.058Z,13.00
2022-10-22T07:54:20.952Z,13.30
2022-10-22T07:58:26.028Z,13.60
2022-10-22T08:02:30.185Z,13.90
2022-10-22T08:06:33.021Z,14.20
2022-10-22T08:10:36.057Z,14.50
2022-10-22T08:14:38.916Z,14.80
2022-10-22T08:18:44.295Z,15.10
2022-10-22T08:22:47.212Z,15.30
2022-10-22T08:26:50.504Z,15.60
2022-10-22T08:30:53.477Z,15.70
2022-10-22T08:34:57.747Z,16.00
2022-10-22T08:39:00.566Z,16.20
2022-10-22T08:43:25.057Z,16.50
2022-10-22T08:47:54.070Z,16.60
2022-10-22T08:51:59.459Z,16.70
2022-10-22T08:56:02.272Z,16.90
2022-10-22T09:00:07.530Z,17.40
2022-10-22T09:04:19.505Z,17.40
2022-10-22T09:08:24.542Z,17.70
2022-10-22T09:12:29.170Z,18.10
2022-10-22T09:16:39.693Z,18.60
2022-10-22T09:20:48.639Z,19.10
2022-10-22T09:24:59.710Z,18.90
2022-10-22T09:29:03.938Z,18.60
2022-10-22T09:33:14.789Z,18.30
2022-10-22T09:37:20.217Z,18.00
2022-10-22T09:41:29.729Z,18.00
2022-10-22T09:45:33.536Z,18.10
2022-10-22T09:49:37.362Z,18.50
2022-10-22T09:53:43.660Z,18.90
2022-10-22T09:57:54.109Z,19.10
2022-10-22T10:02:13.733Z,19.00
2022-10-22T10:06:24.514Z,19.00
2022-10-22T10:10:39.567Z,18.90
2022-10-22T10:14:50.066Z,18.80
2022-10-22T10:19:08.035Z,18.80
2022-10-22T10:23:28.953Z,18.60
2022-10-22T10:27:38.839Z,18.60
2022-10-22T10:31:53.505Z,18.50
2022-10-22T10:36:04.753Z,18.50
2022-10-22T10:40:21.372Z,18.80
2022-10-22T10:44:53.258Z,18.80
2022-10-22T10:49:00.695Z,18.80
2022-10-22T10:53:14.542Z,18.70
2022-10-22T10:57:25.823Z,18.60
2022-10-22T11:01:35.964Z,18.50
2022-10-22T11:05:42.938Z,18.50
2022-10-22T11:09:51.871Z,18.50
2022-10-22T11:13:58.834Z,18.60
2022-10-22T11:18:07.757Z,18.60
2022-10-22T11:22:22.359Z,18.50
2022-10-22T11:26:38.213Z,18.50
2022-10-22T11:30:44.111Z,18.40
2022-10-22T11:34:51.711Z,18.30
2022-10-22T11:38:56.443Z,18.20
2022-10-22T11:43:04.363Z,18.00
2022-10-22T11:47:18.045Z,17.90
2022-10-22T11:51:33.117Z,17.50
2022-10-22T11:55:49.122Z,17.10
2022-10-22T11:59:55.052Z,16.90
2022-10-22T12:04:19.487Z,16.90
2022-10-22T12:08:27.368Z,16.80
2022-10-22T12:12:39.824Z,16.80
2022-10-22T12:17:01.996Z,16.80
2022-10-22T12:21:05.758Z,16.70
2022-10-22T12:25:17.561Z,16.70
2022-10-22T12:29:25.549Z,16.70
2022-10-22T12:33:32.603Z,16.70
2022-10-22T12:37:36.460Z,16.70
2022-10-22T12:41:41.101Z,16.70
2022-10-22T12:45:48.155Z,16.70
2022-10-22T12:49:52.411Z,16.60
2022-10-22T12:53:57.349Z,16.60
2022-10-22T12:58:00.462Z,16.50
2022-10-22T13:02:13.197Z,16.50
2022-10-22T13:06:25.155Z,16.50
2022-10-22T13:10:32.503Z,16.50
2022-10-22T13:14:38.089Z,16.50
2022-10-22T13:18:43.669Z,16.60
2022-10-22T13:23:00.056Z,16.60
2022-10-22T13:27:02.914Z,16.70
2022-10-22T13:31:12.561Z,16.70
2022-10-22T13:35:19.405Z,16.60
2022-10-22T13:39:24.123Z,16.60
2022-10-22T13:43:26.998Z,16.60
2022-10-22T13:47:30.528Z,16.60
2022-10-22T13:51:36.199Z,16.60
2022-10-22T13:55:38.996Z,16.90
2022-10-22T13:59:41.856Z,17.10
2022-10-22T14:03:45.021Z,17.00
2022-10-22T14:07:49.693Z,17.00
2022-10-22T14:11:52.533Z,16.90
2022-10-22T14:15:55.410Z,16.90
2022-10-22T14:20:08.557Z,16.90
2022-10-22T14:24:13.451Z,16.90
2022-10-22T14:28:16.543Z,16.90
2022-10-22T14:32:21.205Z,16.80
2022-10-22T14:36:24.392Z,16.80
2022-10-22T14:40:28.571Z,16.80
2022-10-22T14:44:31.368Z,16.80
2022-10-22T14:48:34.126Z,16.90
2022-10-22T14:52:37.180Z,17.00
2022-10-22T14:56:41.372Z,17.10
2022-10-22T15:00:44.514Z,17.10
2022-10-22T15:04:47.398Z,17.00
2022-10-22T15:08:50.799Z,16.90
2022-10-22T15:12:55.845Z,16.80
2022-10-22T15:16:59.993Z,16.70
2022-10-22T15:21:04.404Z,16.70
2022-10-22T15:25:09.650Z,16.60
2022-10-22T15:29:13.789Z,16.60
2022-10-22T15:33:16.589Z,16.60
2022-10-22T15:37:19.409Z,16.60
2022-10-22T15:41:22.270Z,16.50
2022-10-22T15:45:26.504Z,16.40
2022-10-22T15:49:29.613Z,16.40
2022-10-22T15:53:32.405Z,16.30
2022-10-22T15:57:35.257Z,16.30
2022-10-22T16:01:40.322Z,16.20
2022-10-22T16:05:51.671Z,16.10
2022-10-22T16:09:57.076Z,16.00
2022-10-22T16:14:01.236Z,16.00
2022-10-22T16:18:05.754Z,16.00
2022-10-22T16:22:10.090Z,15.90
2022-10-22T16:26:14.585Z,15.90
2022-10-22T16:30:17.721Z,15.80
2022-10-22T16:34:21.900Z,15.80
2022-10-22T16:38:24.865Z,15.60
2022-10-22T16:42:27.918Z,15.50
2022-10-22T16:46:31.842Z,15.30
2022-10-22T16:50:35.981Z,15.20
2022-10-22T16:54:38.809Z,15.10
2022-10-22T16:58:45.882Z,15.00
2022-10-22T17:02:53.240Z,14.90
2022-10-22T17:06:57.437Z,14.80
2022-10-22T17:11:08.861Z,14.60
2022-10-22T17:15:11.954Z,14.50
2022-10-22T17:19:15.828Z,14.40
2022-10-22T17:23:20.229Z,14.30
2022-10-22T17:27:23.015Z,14.20
2022-10-22T17:31:28.975Z,14.00
2022-10-22T17:35:32.111Z,13.90
2022-10-22T17:39:36.494Z,13.90
2022-10-22T17:43:39.350Z,13.90
2022-10-22T17:47:42.545Z,13.90
2022-10-22T17:51:45.893Z,13.90
2022-10-22T17:55:50.152Z,14.00
2022-10-22T17:59:53.010Z,14.00
2022-10-22T18:03:59.986Z,14.00
2022-10-22T18:08:05.626Z,14.10
2022-10-22T18:12:13.759Z,14.10
2022-10-22T18:16:16.701Z,14.10
2022-10-22T18:20:19.509Z,14.10
2022-10-22T18:24:22.685Z,14.10
2022-10-22T18:28:26.805Z,14.10
2022-10-22T18:32:29.835Z,14.10
2022-10-22T18:36:32.888Z,14.10
2022-10-22T18:40:36.395Z,14.10
2022-10-22T18:44:40.720Z,14.00
2022-10-22T18:48:43.642Z,14.10
2022-10-22T18:52:46.600Z,14.10
2022-10-22T18:56:49.545Z,14.10
2022-10-22T19:00:53.843Z,14.00
2022-10-22T19:04:56.754Z,14.00
2022-10-22T19:09:00.182Z,14.00
2022-10-22T19:13:06.058Z,13.90
2022-10-22T19:17:13.693Z,13.90
2022-10-22T19:21:16.987Z,13.90
2022-10-22T19:25:19.901Z,13.90
2022-10-22T19:29:22.965Z,13.90
2022-10-22T19:33:27.503Z,13.90
2022-10-22T19:37:30.688Z,13.80
2022-10-22T19:41:33.983Z,13.80
2022-10-22T19:45:40.264Z,13.80
2022-10-22T19:49:44.500Z,13.80
2022-10-22T19:53:47.937Z,13.70
2022-10-22T19:57:50.750Z,13.70
2022-10-22T20:01:53.630Z,13.70
2022-10-22T20:05:57.840Z,13.70
2022-10-22T20:10:00.769Z,13.60
2022-10-22T20:14:03.584Z,13.60
2022-10-22T20:18:06.511Z,13.60
2022-10-22T20:22:12.624Z,13.60
2022-10-22T20:26:17.969Z,13.60
2022-10-22T20:30:22.080Z,13.60
2022-10-22T20:34:25.117Z,13.60
2022-10-22T20:38:29.908Z,13.50
2022-10-22T20:42:33.633Z,13.50
2022-10-22T20:46:36.548Z,13.50
2022-10-22T20:50:39.473Z,13.50
2022-10-22T20:54:45.694Z,13.40
2022-10-22T20:58:49.008Z,13.40
2022-10-22T21:02:51.898Z,13.30
2022-10-22T21:06:55.148Z,13.40
2022-10-22T21:10:59.457Z,13.50
2022-10-22T21:15:02.378Z,13.50
2022-10-22T21:19:05.215Z,13.50
2022-10-22T21:23:08.156Z,13.50
2022-10-22T21:27:12.357Z,13.60
2022-10-22T21:31:21.580Z,13.60
2022-10-22T21:35:24.534Z,13.70
2022-10-22T21:39:27.414Z,13.70
2022-10-22T21:43:31.714Z,13.80
2022-10-22T21:47:34.562Z,13.80
2022-10-22T21:51:38.244Z,13.90
2022-10-22T21:55:41.835Z,13.90
2022-10-22T21:59:46.025Z,14.00
2022-10-22T22:03:50.001Z,14.00
2022-10-22T22:07:53.339Z,14.00
2022-10-22T22:11:56.161Z,14.10
2022-10-22T22:16:05.937Z,14.10
2022-10-22T22:20:10.027Z,14.10
2022-10-22T22:24:14.362Z,14.10
2022-10-22T22:28:17.136Z,14.10
2022-10-22T22:32:21.317Z,14.10
2022-10-22T22:36:24.112Z,14.10
2022-10-22T22:40:29.174Z,14.10
2022-10-22T22:44:34.307Z,14.10
2022-10-22T22:48:38.497Z,14.10
2022-10-22T22:52:41.700Z,14.20
2022-10-22T22:56:44.655Z,14.20
2022-10-22T23:00:47.482Z,14.30
2022-10-22T23:04:51.676Z,14.20
2022-10-22T23:08:55.240Z,14.20
2022-10-22T23:12:58.067Z,14.10
2022-10-22T23:17:00.888Z,14.00
2022-10-22T23:21:11.982Z,13.90
2022-10-22T23:25:14.868Z,13.80
2022-10-22T23:29:19.379Z,13.70
2022-10-22T23:33:22.428Z,13.70
2022-10-22T23:37:26.784Z,13.60
2022-10-22T23:41:29.555Z,13.50
2022-10-22T23:45:35.160Z,13.50
2022-10-22T23:49:37.973Z,13.50
2022-10-22T23:53:43.607Z,13.40
2022-10-22T23:57:46.628Z,13.40
